sensor_id;sensor_type;location;lat;lon;timestamp;noise_LAeq;noise_LA_min;noise_LA_max;noise_LA01;noise_LA95
18377;Laerm;9315;52.624;13.544;2023-11-19T00:00:19;67.51;41.66;81.61;;
18377;Laerm;9315;52.624;13.544;2023-11-19T00:02:47;66.89;41.21;81.34;;
18377;Laerm;9315;52.624;13.544;2023-11-19T00:05:15;61.97;39.31;79.43;;
18377;Laerm;9315;52.624;13.544;2023-11-19T00:07:42;66.53;40.82;84.46;;
18377;Laerm;9315;52.624;13.544;2023-11-19T00:10:15;65.89;39.80;81.53;;
18377;Laerm;9315;52.624;13.544;2023-11-19T00:12:48;64.65;38.30;78.56;;
18377;Laerm;9315;52.624;13.544;2023-11-19T00:15:17;65.25;39.39;80.68;;
18377;Laerm;9315;52.624;13.544;2023-11-19T00:17:48;41.97;39.03;46.19;;
18377;Laerm;9315;52.624;13.544;2023-11-19T00:20:18;66.92;40.03;78.78;;
18377;Laerm;9315;52.624;13.544;2023-11-19T00:22:46;60.69;39.27;75.27;;
18377;Laerm;9315;52.624;13.544;2023-11-19T00:25:18;65.68;39.94;82.11;;
18377;Laerm;9315;52.624;13.544;2023-11-19T00:27:46;63.02;41.43;78.87;;
18377;Laerm;9315;52.624;13.544;2023-11-19T00:30:14;62.41;37.59;78.04;;
18377;Laerm;9315;52.624;13.544;2023-11-19T00:32:42;67.70;40.59;84.28;;
18377;Laerm;9315;52.624;13.544;2023-11-19T00:35:10;68.84;38.26;83.57;;
18377;Laerm;9315;52.624;13.544;2023-11-19T00:37:37;59.39;37.17;73.88;;
18377;Laerm;9315;52.624;13.544;2023-11-19T00:40:06;60.47;36.84;77.80;;
18377;Laerm;9315;52.624;13.544;2023-11-19T00:42:33;61.64;37.67;74.76;;
18377;Laerm;9315;52.624;13.544;2023-11-19T00:45:01;62.35;38.78;81.58;;
18377;Laerm;9315;52.624;13.544;2023-11-19T00:47:28;59.96;37.16;76.52;;
18377;Laerm;9315;52.624;13.544;2023-11-19T00:49:56;57.70;37.03;73.25;;
18377;Laerm;9315;52.624;13.544;2023-11-19T00:52:23;59.79;37.86;74.57;;
18377;Laerm;9315;52.624;13.544;2023-11-19T00:54:50;59.12;38.52;77.21;;
18377;Laerm;9315;52.624;13.544;2023-11-19T00:57:18;61.32;36.79;81.55;;
18377;Laerm;9315;52.624;13.544;2023-11-19T00:59:45;57.84;36.89;77.19;;
18377;Laerm;9315;52.624;13.544;2023-11-19T01:02:14;60.08;37.38;74.12;;
18377;Laerm;9315;52.624;13.544;2023-11-19T01:04:42;58.49;38.59;77.08;;
18377;Laerm;9315;52.624;13.544;2023-11-19T01:07:10;60.95;40.58;78.64;;
18377;Laerm;9315;52.624;13.544;2023-11-19T01:09:42;61.53;39.23;77.07;;
18377;Laerm;9315;52.624;13.544;2023-11-19T01:12:10;64.97;40.33;83.66;;
18377;Laerm;9315;52.624;13.544;2023-11-19T01:14:37;57.62;37.94;72.88;;
18377;Laerm;9315;52.624;13.544;2023-11-19T01:17:05;51.47;39.07;65.87;;
18377;Laerm;9315;52.624;13.544;2023-11-19T01:19:33;59.46;37.49;79.00;;
18377;Laerm;9315;52.624;13.544;2023-11-19T01:22:01;40.53;37.88;45.59;;
18377;Laerm;9315;52.624;13.544;2023-11-19T01:24:29;61.19;36.82;77.80;;
18377;Laerm;9315;52.624;13.544;2023-11-19T01:26:58;53.60;36.34;70.30;;
18377;Laerm;9315;52.624;13.544;2023-11-19T01:29:27;39.31;36.63;45.55;;
18377;Laerm;9315;52.624;13.544;2023-11-19T01:31:54;40.22;37.30;46.56;;
18377;Laerm;9315;52.624;13.544;2023-11-19T01:34:22;40.56;38.05;45.37;;
18377;Laerm;9315;52.624;13.544;2023-11-19T01:36:49;63.27;37.83;81.31;;
18377;Laerm;9315;52.624;13.544;2023-11-19T01:39:17;58.56;37.71;73.60;;
18377;Laerm;9315;52.624;13.544;2023-11-19T01:41:44;65.67;38.05;80.96;;
18377;Laerm;9315;52.624;13.544;2023-11-19T01:44:12;59.13;36.92;75.98;;
18377;Laerm;9315;52.624;13.544;2023-11-19T01:46:45;43.32;38.29;59.56;;
18377;Laerm;9315;52.624;13.544;2023-11-19T01:49:18;61.93;38.23;80.92;;
18377;Laerm;9315;52.624;13.544;2023-11-19T01:51:48;61.84;37.16;82.21;;
18377;Laerm;9315;52.624;13.544;2023-11-19T01:54:15;55.26;37.93;70.01;;
18377;Laerm;9315;52.624;13.544;2023-11-19T01:56:44;56.63;37.48;74.19;;
18377;Laerm;9315;52.624;13.544;2023-11-19T01:59:12;58.67;36.75;78.70;;
18377;Laerm;9315;52.624;13.544;2023-11-19T02:01:41;45.71;35.93;68.25;;
18377;Laerm;9315;52.624;13.544;2023-11-19T02:04:10;58.17;36.93;77.72;;
18377;Laerm;9315;52.624;13.544;2023-11-19T02:06:40;61.78;41.08;75.15;;
18377;Laerm;9315;52.624;13.544;2023-11-19T02:09:09;64.03;38.49;79.97;;
18377;Laerm;9315;52.624;13.544;2023-11-19T02:11:40;54.76;38.75;73.59;;
18377;Laerm;9315;52.624;13.544;2023-11-19T02:14:07;61.63;38.88;76.20;;
18377;Laerm;9315;52.624;13.544;2023-11-19T02:16:35;58.80;37.90;75.90;;
18377;Laerm;9315;52.624;13.544;2023-11-19T02:19:02;59.72;37.13;75.72;;
18377;Laerm;9315;52.624;13.544;2023-11-19T02:21:31;54.64;40.50;71.53;;
18377;Laerm;9315;52.624;13.544;2023-11-19T02:23:58;61.33;37.07;81.54;;
18377;Laerm;9315;52.624;13.544;2023-11-19T02:27:57;59.22;36.66;80.36;;
18377;Laerm;9315;52.624;13.544;2023-11-19T02:30:16;64.14;37.73;83.97;;
18377;Laerm;9315;52.624;13.544;2023-11-19T02:32:44;60.12;37.13;76.53;;
18377;Laerm;9315;52.624;13.544;2023-11-19T02:35:11;41.28;37.57;48.34;;
18377;Laerm;9315;52.624;13.544;2023-11-19T02:37:38;62.28;38.78;80.00;;
18377;Laerm;9315;52.624;13.544;2023-11-19T02:40:07;40.99;37.69;46.46;;
18377;Laerm;9315;52.624;13.544;2023-11-19T02:42:36;61.80;37.57;80.71;;
18377;Laerm;9315;52.624;13.544;2023-11-19T02:45:04;59.98;37.30;77.24;;
18377;Laerm;9315;52.624;13.544;2023-11-19T02:47:34;41.23;38.11;51.41;;
18377;Laerm;9315;52.624;13.544;2023-11-19T02:50:02;60.00;37.94;79.37;;
18377;Laerm;9315;52.624;13.544;2023-11-19T02:52:29;56.45;38.33;72.01;;
18377;Laerm;9315;52.624;13.544;2023-11-19T02:54:57;60.62;38.49;76.07;;
18377;Laerm;9315;52.624;13.544;2023-11-19T02:57:24;41.03;36.11;55.11;;
18377;Laerm;9315;52.624;13.544;2023-11-19T02:59:52;40.90;37.17;50.30;;
18377;Laerm;9315;52.624;13.544;2023-11-19T03:02:21;62.55;37.02;81.55;;
18377;Laerm;9315;52.624;13.544;2023-11-19T03:04:49;60.04;37.65;73.64;;
18377;Laerm;9315;52.624;13.544;2023-11-19T03:07:16;58.84;38.87;76.50;;
18377;Laerm;9315;52.624;13.544;2023-11-19T03:09:45;62.18;39.01;79.78;;
18377;Laerm;9315;52.624;13.544;2023-11-19T03:12:12;52.35;37.68;66.83;;
18377;Laerm;9315;52.624;13.544;2023-11-19T03:14:39;49.95;36.94;64.23;;
18377;Laerm;9315;52.624;13.544;2023-11-19T03:17:07;41.45;36.81;52.98;;
18377;Laerm;9315;52.624;13.544;2023-11-19T03:19:37;63.04;38.02;81.06;;
18377;Laerm;9315;52.624;13.544;2023-11-19T03:22:04;58.95;35.75;74.57;;
18377;Laerm;9315;52.624;13.544;2023-11-19T03:24:31;57.20;36.35;72.67;;
18377;Laerm;9315;52.624;13.544;2023-11-19T03:26:59;41.44;37.36;47.38;;
18377;Laerm;9315;52.624;13.544;2023-11-19T03:29:26;54.86;37.74;72.70;;
18377;Laerm;9315;52.624;13.544;2023-11-19T03:31:55;59.25;37.33;73.34;;
18377;Laerm;9315;52.624;13.544;2023-11-19T03:34:23;44.47;38.34;49.61;;
18377;Laerm;9315;52.624;13.544;2023-11-19T03:36:50;58.01;42.59;74.50;;
18377;Laerm;9315;52.624;13.544;2023-11-19T03:39:17;65.21;42.79;78.70;;
18377;Laerm;9315;52.624;13.544;2023-11-19T03:41:48;63.72;41.66;77.67;;
18377;Laerm;9315;52.624;13.544;2023-11-19T03:44:15;57.37;41.76;71.96;;
18377;Laerm;9315;52.624;13.544;2023-11-19T03:46:42;60.51;42.09;78.86;;
18377;Laerm;9315;52.624;13.544;2023-11-19T03:49:12;67.45;46.38;82.71;;
18377;Laerm;9315;52.624;13.544;2023-11-19T03:51:39;60.26;43.92;76.29;;
18377;Laerm;9315;52.624;13.544;2023-11-19T03:54:08;67.21;45.12;78.80;;
18377;Laerm;9315;52.624;13.544;2023-11-19T03:56:35;65.12;44.29;81.36;;
18377;Laerm;9315;52.624;13.544;2023-11-19T03:59:02;62.60;47.46;77.38;;
18377;Laerm;9315;52.624;13.544;2023-11-19T04:01:30;67.45;48.47;80.52;;
18377;Laerm;9315;52.624;13.544;2023-11-19T04:03:57;60.96;44.46;77.77;;
18377;Laerm;9315;52.624;13.544;2023-11-19T04:06:26;62.57;44.21;79.96;;
18377;Laerm;9315;52.624;13.544;2023-11-19T04:08:53;67.94;44.00;82.08;;
18377;Laerm;9315;52.624;13.544;2023-11-19T04:11:21;68.27;46.14;83.87;;
18377;Laerm;9315;52.624;13.544;2023-11-19T04:13:48;64.20;48.14;79.70;;
18377;Laerm;9315;52.624;13.544;2023-11-19T04:16:16;69.42;48.23;84.00;;
18377;Laerm;9315;52.624;13.544;2023-11-19T04:18:43;67.32;46.52;78.49;;
18377;Laerm;9315;52.624;13.544;2023-11-19T04:21:10;62.15;42.68;80.91;;
18377;Laerm;9315;52.624;13.544;2023-11-19T04:23:38;66.66;42.45;82.64;;
18377;Laerm;9315;52.624;13.544;2023-11-19T04:26:05;66.55;51.75;81.15;;
18377;Laerm;9315;52.624;13.544;2023-11-19T04:28:36;67.27;50.65;81.42;;
18377;Laerm;9315;52.624;13.544;2023-11-19T04:31:04;65.16;47.45;80.87;;
18377;Laerm;9315;52.624;13.544;2023-11-19T04:33:33;65.24;45.34;80.24;;
18377;Laerm;9315;52.624;13.544;2023-11-19T04:36:00;67.95;44.71;81.59;;
18377;Laerm;9315;52.624;13.544;2023-11-19T04:38:29;68.53;41.38;80.61;;
18377;Laerm;9315;52.624;13.544;2023-11-19T04:40:57;67.29;42.84;85.36;;
18377;Laerm;9315;52.624;13.544;2023-11-19T04:43:25;70.40;48.17;82.27;;
18377;Laerm;9315;52.624;13.544;2023-11-19T04:45:52;63.48;47.73;80.96;;
18377;Laerm;9315;52.624;13.544;2023-11-19T04:48:19;68.27;46.95;80.14;;
18377;Laerm;9315;52.624;13.544;2023-11-19T04:50:47;69.68;47.91;82.10;;
18377;Laerm;9315;52.624;13.544;2023-11-19T04:53:14;69.17;48.93;86.56;;
18377;Laerm;9315;52.624;13.544;2023-11-19T04:55:43;64.87;52.99;81.29;;
18377;Laerm;9315;52.624;13.544;2023-11-19T04:58:10;67.77;53.97;80.47;;
18377;Laerm;9315;52.624;13.544;2023-11-19T05:00:38;69.78;54.41;86.96;;
18377;Laerm;9315;52.624;13.544;2023-11-19T05:03:05;69.57;55.16;83.80;;
18377;Laerm;9315;52.624;13.544;2023-11-19T05:05:33;64.99;57.14;82.33;;
18377;Laerm;9315;52.624;13.544;2023-11-19T05:08:01;71.86;57.61;87.96;;
18377;Laerm;9315;52.624;13.544;2023-11-19T05:10:29;71.80;58.27;87.30;;
18377;Laerm;9315;52.624;13.544;2023-11-19T05:12:56;59.30;56.78;64.06;;
18377;Laerm;9315;52.624;13.544;2023-11-19T05:15:24;65.74;55.82;83.02;;
18377;Laerm;9315;52.624;13.544;2023-11-19T05:17:51;71.35;53.19;84.76;;
18377;Laerm;9315;52.624;13.544;2023-11-19T05:20:19;68.37;48.17;81.55;;
18377;Laerm;9315;52.624;13.544;2023-11-19T05:22:46;68.02;48.20;82.90;;
18377;Laerm;9315;52.624;13.544;2023-11-19T05:25:14;63.83;51.68;77.64;;
18377;Laerm;9315;52.624;13.544;2023-11-19T05:27:41;61.89;52.76;78.91;;
18377;Laerm;9315;52.624;13.544;2023-11-19T05:30:09;62.24;53.08;79.27;;
18377;Laerm;9315;52.624;13.544;2023-11-19T05:32:39;64.47;52.14;81.42;;
18377;Laerm;9315;52.624;13.544;2023-11-19T05:35:08;69.12;53.01;86.23;;
18377;Laerm;9315;52.624;13.544;2023-11-19T05:37:35;63.20;53.13;81.36;;
18377;Laerm;9315;52.624;13.544;2023-11-19T05:40:03;69.07;52.71;84.41;;
18377;Laerm;9315;52.624;13.544;2023-11-19T05:42:37;62.45;53.10;78.34;;
18377;Laerm;9315;52.624;13.544;2023-11-19T05:45:05;67.94;54.81;84.82;;
18377;Laerm;9315;52.624;13.544;2023-11-19T05:47:34;61.16;54.54;76.23;;
18377;Laerm;9315;52.624;13.544;2023-11-19T05:50:02;66.19;53.40;82.64;;
18377;Laerm;9315;52.624;13.544;2023-11-19T05:52:31;69.19;54.80;85.61;;
18377;Laerm;9315;52.624;13.544;2023-11-19T05:55:01;69.19;54.40;85.61;;
18377;Laerm;9315;52.624;13.544;2023-11-19T05:57:32;68.63;55.18;85.18;;
18377;Laerm;9315;52.624;13.544;2023-11-19T06:00:13;57.34;54.83;62.63;;
18377;Laerm;9315;52.624;13.544;2023-11-19T06:02:43;67.59;52.94;82.56;;
18377;Laerm;9315;52.624;13.544;2023-11-19T06:05:10;54.26;52.39;58.30;;
18377;Laerm;9315;52.624;13.544;2023-11-19T06:07:37;53.89;51.66;61.88;;
18377;Laerm;9315;52.624;13.544;2023-11-19T06:10:06;69.08;51.16;88.17;;
18377;Laerm;9315;52.624;13.544;2023-11-19T06:12:37;64.39;52.05;83.24;;
18377;Laerm;9315;52.624;13.544;2023-11-19T06:15:06;67.34;52.14;79.92;;
18377;Laerm;9315;52.624;13.544;2023-11-19T06:17:35;63.43;50.64;80.50;;
18377;Laerm;9315;52.624;13.544;2023-11-19T06:20:05;68.80;51.96;83.33;;
18377;Laerm;9315;52.624;13.544;2023-11-19T06:22:33;67.50;52.46;80.64;;
18377;Laerm;9315;52.624;13.544;2023-11-19T06:25:02;64.32;51.82;81.67;;
18377;Laerm;9315;52.624;13.544;2023-11-19T06:27:35;67.66;52.80;80.62;;
18377;Laerm;9315;52.624;13.544;2023-11-19T06:30:03;65.23;52.65;80.34;;
18377;Laerm;9315;52.624;13.544;2023-11-19T06:32:30;61.17;52.70;79.12;;
18377;Laerm;9315;52.624;13.544;2023-11-19T06:34:58;69.48;54.35;85.13;;
18377;Laerm;9315;52.624;13.544;2023-11-19T06:37:25;70.76;53.80;88.08;;
18377;Laerm;9315;52.624;13.544;2023-11-19T06:39:54;66.66;52.52;79.84;;
18377;Laerm;9315;52.624;13.544;2023-11-19T06:42:21;74.63;53.60;88.64;;
18377;Laerm;9315;52.624;13.544;2023-11-19T06:44:49;69.47;52.68;85.09;;
18377;Laerm;9315;52.624;13.544;2023-11-19T06:47:17;71.12;53.66;83.50;;
18377;Laerm;9315;52.624;13.544;2023-11-19T06:49:45;73.03;52.78;86.15;;
18377;Laerm;9315;52.624;13.544;2023-11-19T06:52:12;73.75;50.38;86.22;;
18377;Laerm;9315;52.624;13.544;2023-11-19T06:54:40;64.55;51.64;81.34;;
18377;Laerm;9315;52.624;13.544;2023-11-19T06:57:07;69.74;51.29;84.07;;
18377;Laerm;9315;52.624;13.544;2023-11-19T06:59:36;69.29;51.25;83.97;;
18377;Laerm;9315;52.624;13.544;2023-11-19T07:02:04;69.86;53.09;82.21;;
18377;Laerm;9315;52.624;13.544;2023-11-19T07:04:34;68.84;56.72;83.67;;
18377;Laerm;9315;52.624;13.544;2023-11-19T07:07:02;63.17;51.27;81.51;;
18377;Laerm;9315;52.624;13.544;2023-11-19T07:09:29;64.27;50.84;77.35;;
18377;Laerm;9315;52.624;13.544;2023-11-19T07:11:57;71.01;52.23;85.55;;
18377;Laerm;9315;52.624;13.544;2023-11-19T07:14:24;71.98;51.29;84.90;;
18377;Laerm;9315;52.624;13.544;2023-11-19T07:16:51;71.95;54.25;85.32;;
18377;Laerm;9315;52.624;13.544;2023-11-19T07:19:21;69.65;53.46;83.19;;
18377;Laerm;9315;52.624;13.544;2023-11-19T07:21:48;72.11;58.73;84.45;;
18377;Laerm;9315;52.624;13.544;2023-11-19T07:24:16;75.10;53.87;87.96;;
18377;Laerm;9315;52.624;13.544;2023-11-19T07:26:45;73.83;54.09;86.26;;
18377;Laerm;9315;52.624;13.544;2023-11-19T07:29:15;74.82;58.41;86.06;;
18377;Laerm;9315;52.624;13.544;2023-11-19T07:31:55;73.30;53.30;85.19;;
18377;Laerm;9315;52.624;13.544;2023-11-19T07:34:27;74.24;49.56;85.83;;
18377;Laerm;9315;52.624;13.544;2023-11-19T07:36:56;75.87;49.79;88.29;;
18377;Laerm;9315;52.624;13.544;2023-11-19T07:39:30;74.97;51.60;85.12;;
18377;Laerm;9315;52.624;13.544;2023-11-19T07:41:57;70.74;46.20;85.39;;
18377;Laerm;9315;52.624;13.544;2023-11-19T07:44:25;69.67;46.47;81.13;;
18377;Laerm;9315;52.624;13.544;2023-11-19T07:46:53;72.31;48.72;83.44;;
18377;Laerm;9315;52.624;13.544;2023-11-19T07:49:21;72.59;48.70;83.51;;
18377;Laerm;9315;52.624;13.544;2023-11-19T07:51:48;69.71;45.81;83.98;;
18377;Laerm;9315;52.624;13.544;2023-11-19T07:54:16;68.94;45.32;78.66;;
18377;Laerm;9315;52.624;13.544;2023-11-19T07:56:43;71.48;46.56;83.75;;
18377;Laerm;9315;52.624;13.544;2023-11-19T07:59:11;66.32;46.01;78.91;;
18377;Laerm;9315;52.624;13.544;2023-11-19T08:01:38;73.19;48.65;83.14;;
18377;Laerm;9315;52.624;13.544;2023-11-19T08:04:06;69.60;44.65;81.18;;
18377;Laerm;9315;52.624;13.544;2023-11-19T08:06:35;71.55;46.33;85.14;;
18377;Laerm;9315;52.624;13.544;2023-11-19T08:09:02;67.89;45.93;82.41;;
18377;Laerm;9315;52.624;13.544;2023-11-19T08:11:29;72.28;48.29;82.44;;
18377;Laerm;9315;52.624;13.544;2023-11-19T08:13:57;72.72;47.39;85.77;;
18377;Laerm;9315;52.624;13.544;2023-11-19T08:16:24;64.09;45.50;77.60;;
18377;Laerm;9315;52.624;13.544;2023-11-19T08:18:52;69.81;45.98;83.24;;
18377;Laerm;9315;52.624;13.544;2023-11-19T08:21:19;72.36;47.24;83.50;;
18377;Laerm;9315;52.624;13.544;2023-11-19T08:23:48;69.53;47.95;83.93;;
18377;Laerm;9315;52.624;13.544;2023-11-19T08:26:15;70.01;47.90;80.71;;
18377;Laerm;9315;52.624;13.544;2023-11-19T08:28:47;72.11;49.19;82.56;;
18377;Laerm;9315;52.624;13.544;2023-11-19T08:31:14;74.56;49.97;85.37;;
18377;Laerm;9315;52.624;13.544;2023-11-19T08:33:42;71.53;48.94;82.51;;
18377;Laerm;9315;52.624;13.544;2023-11-19T08:36:16;74.26;49.50;85.96;;
18377;Laerm;9315;52.624;13.544;2023-11-19T08:38:44;73.30;50.41;83.85;;
18377;Laerm;9315;52.624;13.544;2023-11-19T08:41:12;75.58;48.93;88.55;;
18377;Laerm;9315;52.624;13.544;2023-11-19T08:43:39;73.19;48.23;83.71;;
18377;Laerm;9315;52.624;13.544;2023-11-19T08:46:11;72.46;46.92;82.17;;
18377;Laerm;9315;52.624;13.544;2023-11-19T08:48:39;72.92;48.78;84.21;;
18377;Laerm;9315;52.624;13.544;2023-11-19T08:51:07;73.15;51.51;82.18;;
18377;Laerm;9315;52.624;13.544;2023-11-19T08:53:34;72.06;49.14;82.43;;
18377;Laerm;9315;52.624;13.544;2023-11-19T08:56:02;72.50;49.77;82.20;;
18377;Laerm;9315;52.624;13.544;2023-11-19T08:58:30;69.16;47.36;83.17;;
18377;Laerm;9315;52.624;13.544;2023-11-19T09:00:58;71.94;48.49;81.89;;
18377;Laerm;9315;52.624;13.544;2023-11-19T09:03:26;70.52;49.55;81.96;;
18377;Laerm;9315;52.624;13.544;2023-11-19T09:05:54;71.93;48.71;82.90;;
18377;Laerm;9315;52.624;13.544;2023-11-19T09:08:21;70.08;47.82;81.59;;
18377;Laerm;9315;52.624;13.544;2023-11-19T09:10:49;71.47;51.21;82.08;;
18377;Laerm;9315;52.624;13.544;2023-11-19T09:13:16;70.36;49.32;80.55;;
18377;Laerm;9315;52.624;13.544;2023-11-19T09:15:44;70.60;49.71;81.19;;
18377;Laerm;9315;52.624;13.544;2023-11-19T09:18:11;74.29;53.32;84.31;;
18377;Laerm;9315;52.624;13.544;2023-11-19T09:20:39;78.16;58.41;87.53;;
18377;Laerm;9315;52.624;13.544;2023-11-19T09:23:06;73.63;55.63;85.54;;
18377;Laerm;9315;52.624;13.544;2023-11-19T09:25:36;76.98;55.44;86.83;;
18377;Laerm;9315;52.624;13.544;2023-11-19T09:28:06;75.10;51.60;86.50;;
18377;Laerm;9315;52.624;13.544;2023-11-19T09:30:36;76.42;52.44;86.18;;
18377;Laerm;9315;52.624;13.544;2023-11-19T09:33:03;73.09;48.80;83.03;;
18377;Laerm;9315;52.624;13.544;2023-11-19T09:35:31;73.17;50.32;83.14;;
18377;Laerm;9315;52.624;13.544;2023-11-19T09:37:59;72.92;50.60;83.16;;
18377;Laerm;9315;52.624;13.544;2023-11-19T09:40:29;75.03;51.22;82.54;;
18377;Laerm;9315;52.624;13.544;2023-11-19T09:42:59;74.31;53.10;85.11;;
18377;Laerm;9315;52.624;13.544;2023-11-19T09:45:28;71.87;50.78;84.96;;
18377;Laerm;9315;52.624;13.544;2023-11-19T09:47:57;73.33;51.65;83.90;;
18377;Laerm;9315;52.624;13.544;2023-11-19T09:50:30;72.53;51.23;81.93;;
18377;Laerm;9315;52.624;13.544;2023-11-19T09:52:58;73.60;52.53;83.70;;
18377;Laerm;9315;52.624;13.544;2023-11-19T09:55:28;73.48;52.60;82.40;;
18377;Laerm;9315;52.624;13.544;2023-11-19T09:57:56;73.37;53.86;82.58;;
18377;Laerm;9315;52.624;13.544;2023-11-19T10:00:27;73.87;54.38;82.05;;
18377;Laerm;9315;52.624;13.544;2023-11-19T10:02:55;73.53;49.87;84.31;;
18377;Laerm;9315;52.624;13.544;2023-11-19T10:05:24;68.36;50.28;79.34;;
18377;Laerm;9315;52.624;13.544;2023-11-19T10:07:53;70.12;50.64;81.95;;
18377;Laerm;9315;52.624;13.544;2023-11-19T10:10:22;71.33;49.73;81.24;;
18377;Laerm;9315;52.624;13.544;2023-11-19T10:12:51;72.06;51.03;84.81;;
18377;Laerm;9315;52.624;13.544;2023-11-19T10:15:24;73.58;51.12;82.19;;
18377;Laerm;9315;52.624;13.544;2023-11-19T10:18:02;72.42;51.15;82.26;;
18377;Laerm;9315;52.624;13.544;2023-11-19T10:20:41;68.81;50.69;79.96;;
18377;Laerm;9315;52.624;13.544;2023-11-19T10:23:09;72.11;52.03;79.83;;
18377;Laerm;9315;52.624;13.544;2023-11-19T10:25:37;72.14;54.72;80.15;;
18377;Laerm;9315;52.624;13.544;2023-11-19T10:28:07;72.81;51.49;84.86;;
18377;Laerm;9315;52.624;13.544;2023-11-19T10:30:37;72.28;53.65;81.16;;
18377;Laerm;9315;52.624;13.544;2023-11-19T10:33:13;72.46;53.59;81.71;;
18377;Laerm;9315;52.624;13.544;2023-11-19T10:35:54;69.53;50.57;80.61;;
18377;Laerm;9315;52.624;13.544;2023-11-19T10:38:26;72.12;54.54;80.82;;
18377;Laerm;9315;52.624;13.544;2023-11-19T10:40:54;72.31;54.65;80.48;;
18377;Laerm;9315;52.624;13.544;2023-11-19T10:43:23;74.14;57.48;81.84;;
18377;Laerm;9315;52.624;13.544;2023-11-19T10:45:51;72.89;51.95;80.20;;
18377;Laerm;9315;52.624;13.544;2023-11-19T10:48:19;71.45;54.12;78.79;;
18377;Laerm;9315;52.624;13.544;2023-11-19T10:50:53;72.59;52.49;82.20;;
18377;Laerm;9315;52.624;13.544;2023-11-19T10:53:23;71.76;52.63;81.34;;
18377;Laerm;9315;52.624;13.544;2023-11-19T10:55:55;72.03;54.73;80.64;;
18377;Laerm;9315;52.624;13.544;2023-11-19T10:58:24;71.66;52.17;79.93;;
18377;Laerm;9315;52.624;13.544;2023-11-19T11:00:57;69.75;52.77;78.93;;
18377;Laerm;9315;52.624;13.544;2023-11-19T11:03:36;70.39;51.50;80.40;;
18377;Laerm;9315;52.624;13.544;2023-11-19T11:06:07;70.80;51.44;80.33;;
18377;Laerm;9315;52.624;13.544;2023-11-19T11:08:40;71.71;52.29;80.86;;
18377;Laerm;9315;52.624;13.544;2023-11-19T11:11:08;70.65;52.48;79.12;;
18377;Laerm;9315;52.624;13.544;2023-11-19T11:13:42;70.77;51.27;79.03;;
18377;Laerm;9315;52.624;13.544;2023-11-19T11:16:11;71.45;52.94;79.75;;
18377;Laerm;9315;52.624;13.544;2023-11-19T11:18:39;70.99;51.23;79.39;;
18377;Laerm;9315;52.624;13.544;2023-11-19T11:21:11;71.36;54.85;79.33;;
18377;Laerm;9315;52.624;13.544;2023-11-19T11:27:28;72.37;53.12;82.46;;
18377;Laerm;9315;52.624;13.544;2023-11-19T11:31:15;70.79;50.85;80.47;;
18377;Laerm;9315;52.624;13.544;2023-11-19T11:34:56;71.27;51.68;79.59;;
18377;Laerm;9315;52.624;13.544;2023-11-19T11:37:50;71.67;52.02;79.92;;
18377;Laerm;9315;52.624;13.544;2023-11-19T11:40:20;73.70;54.65;82.87;;
18377;Laerm;9315;52.624;13.544;2023-11-19T11:42:47;73.10;51.39;90.41;;
18377;Laerm;9315;52.624;13.544;2023-11-19T11:45:15;71.80;52.28;82.52;;
18377;Laerm;9315;52.624;13.544;2023-11-19T11:50:18;71.11;50.29;91.36;;
18377;Laerm;9315;52.624;13.544;2023-11-19T11:55:35;71.27;53.23;78.79;;
18377;Laerm;9315;52.624;13.544;2023-11-19T11:58:06;72.04;53.23;80.79;;
18377;Laerm;9315;52.624;13.544;2023-11-19T12:00:41;71.06;53.64;80.28;;
18377;Laerm;9315;52.624;13.544;2023-11-19T12:03:11;69.48;50.75;80.17;;
18377;Laerm;9315;52.624;13.544;2023-11-19T12:05:45;69.87;49.61;81.87;;
18377;Laerm;9315;52.624;13.544;2023-11-19T12:08:22;70.25;51.74;79.02;;
18377;Laerm;9315;52.624;13.544;2023-11-19T12:10:56;71.87;51.92;80.18;;
18377;Laerm;9315;52.624;13.544;2023-11-19T12:13:53;70.56;50.87;79.32;;
18377;Laerm;9315;52.624;13.544;2023-11-19T12:16:22;71.11;52.09;77.32;;
18377;Laerm;9315;52.624;13.544;2023-11-19T12:18:50;69.60;50.74;78.64;;
18377;Laerm;9315;52.624;13.544;2023-11-19T12:21:31;70.90;52.80;80.17;;
18377;Laerm;9315;52.624;13.544;2023-11-19T12:23:59;71.60;51.76;78.60;;
18377;Laerm;9315;52.624;13.544;2023-11-19T12:26:40;69.18;50.69;78.31;;
18377;Laerm;9315;52.624;13.544;2023-11-19T12:29:07;72.65;52.73;80.27;;
18377;Laerm;9315;52.624;13.544;2023-11-19T12:31:36;72.29;53.84;79.96;;
18377;Laerm;9315;52.624;13.544;2023-11-19T12:34:08;72.01;54.99;79.06;;
18377;Laerm;9315;52.624;13.544;2023-11-19T12:36:40;70.45;51.02;79.89;;
18377;Laerm;9315;52.624;13.544;2023-11-19T12:39:09;71.39;54.60;78.52;;
18377;Laerm;9315;52.624;13.544;2023-11-19T12:41:51;73.69;52.43;83.09;;
18377;Laerm;9315;52.624;13.544;2023-11-19T12:44:19;74.52;56.91;81.52;;
18377;Laerm;9315;52.624;13.544;2023-11-19T12:46:59;73.51;52.86;81.36;;
18377;Laerm;9315;52.624;13.544;2023-11-19T12:49:28;71.05;50.95;81.06;;
18377;Laerm;9315;52.624;13.544;2023-11-19T12:51:56;73.25;52.88;83.19;;
18377;Laerm;9315;52.624;13.544;2023-11-19T12:54:37;71.82;50.23;80.66;;
18377;Laerm;9315;52.624;13.544;2023-11-19T12:57:05;73.20;53.69;81.97;;
18377;Laerm;9315;52.624;13.544;2023-11-19T12:59:33;70.93;51.35;78.93;;
18377;Laerm;9315;52.624;13.544;2023-11-19T13:02:01;72.51;52.80;80.41;;
18377;Laerm;9315;52.624;13.544;2023-11-19T13:04:32;72.23;50.53;80.25;;
18377;Laerm;9315;52.624;13.544;2023-11-19T13:07:00;74.04;58.56;80.59;;
18377;Laerm;9315;52.624;13.544;2023-11-19T13:09:32;72.90;53.23;79.03;;
18377;Laerm;9315;52.624;13.544;2023-11-19T13:11:59;73.39;57.45;81.04;;
18377;Laerm;9315;52.624;13.544;2023-11-19T13:14:39;72.54;50.59;79.58;;
18377;Laerm;9315;52.624;13.544;2023-11-19T13:17:07;73.68;52.96;80.69;;
18377;Laerm;9315;52.624;13.544;2023-11-19T13:19:35;72.51;52.14;80.89;;
18377;Laerm;9315;52.624;13.544;2023-11-19T13:22:03;73.84;51.86;80.20;;
18377;Laerm;9315;52.624;13.544;2023-11-19T13:24:30;71.32;50.27;79.39;;
18377;Laerm;9315;52.624;13.544;2023-11-19T13:26:58;73.03;51.54;82.07;;
18377;Laerm;9315;52.624;13.544;2023-11-19T13:29:25;73.41;53.71;81.92;;
18377;Laerm;9315;52.624;13.544;2023-11-19T13:31:55;72.73;50.56;83.42;;
18377;Laerm;9315;52.624;13.544;2023-11-19T13:34:23;73.37;55.21;88.15;;
18377;Laerm;9315;52.624;13.544;2023-11-19T13:36:51;71.86;51.67;80.88;;
18377;Laerm;9315;52.624;13.544;2023-11-19T13:39:18;71.54;53.21;79.33;;
18377;Laerm;9315;52.624;13.544;2023-11-19T13:41:50;73.23;50.89;82.04;;
18377;Laerm;9315;52.624;13.544;2023-11-19T13:44:18;72.05;55.39;80.59;;
18377;Laerm;9315;52.624;13.544;2023-11-19T13:46:45;70.83;49.82;79.74;;
18377;Laerm;9315;52.624;13.544;2023-11-19T13:49:14;70.43;50.48;78.98;;
18377;Laerm;9315;52.624;13.544;2023-11-19T13:51:42;72.10;51.35;79.15;;
18377;Laerm;9315;52.624;13.544;2023-11-19T13:54:10;71.82;53.34;79.27;;
18377;Laerm;9315;52.624;13.544;2023-11-19T13:56:37;72.61;51.22;83.06;;
18377;Laerm;9315;52.624;13.544;2023-11-19T13:59:04;71.84;51.66;78.08;;
18377;Laerm;9315;52.624;13.544;2023-11-19T14:01:32;71.60;51.79;78.60;;
18377;Laerm;9315;52.624;13.544;2023-11-19T14:03:59;71.54;51.04;78.61;;
18377;Laerm;9315;52.624;13.544;2023-11-19T14:06:27;71.30;50.65;78.70;;